Time;durP1;ratioP1;P1;durP2;ratioP2;P2;SDS_P1;SDS_P2;PMS_P1;PMS_P2;Temp;Humidity;BMP_temperature;BMP_pressure;BME280_temperature;BME280_humidity;BME280_pressure;Samples;Min_cycle;Max_cycle;Signal;HPM_P1;HPM_P2
2023/09/30 00:00:14;;;;;;;7.40;2.30;;;17.20;99.90;;;;;;5020154;28;20947;-67
2023/09/30 00:02:40;;;;;;;3.90;1.60;;;17.20;99.90;;;;;;5018017;28;20203;-62
2023/09/30 00:05:06;;;;;;;5.57;2.27;;;17.10;99.90;;;;;;5013833;28;20218;-63
2023/09/30 00:07:31;;;;;;;4.83;2.03;;;17.00;99.90;;;;;;5005428;28;20192;-63
2023/09/30 00:09:57;;;;;;;5.00;1.80;;;16.90;99.90;;;;;;5011790;28;20280;-63
2023/09/30 00:12:22;;;;;;;5.80;2.07;;;16.90;99.90;;;;;;5017798;28;20210;-71
2023/09/30 00:14:48;;;;;;;7.20;1.97;;;16.90;99.90;;;;;;5012839;28;20206;-62
2023/09/30 00:17:14;;;;;;;4.67;2.07;;;16.80;99.90;;;;;;5019567;28;20951;-61
2023/09/30 00:19:40;;;;;;;5.13;2.00;;;16.70;99.90;;;;;;5004713;28;20232;-61
2023/09/30 00:22:05;;;;;;;4.70;1.73;;;16.70;99.90;;;;;;5008107;28;20252;-61
2023/09/30 00:24:31;;;;;;;4.07;1.57;;;16.60;99.90;;;;;;5009271;28;20224;-60
2023/09/30 00:26:57;;;;;;;3.97;1.57;;;16.60;99.90;;;;;;5014735;28;20259;-65
2023/09/30 00:29:22;;;;;;;4.40;1.43;;;16.60;99.90;;;;;;5016109;28;20660;-68
2023/09/30 00:31:48;;;;;;;8.30;2.17;;;16.50;99.90;;;;;;5012516;28;20569;-66
2023/09/30 00:34:13;;;;;;;4.67;1.63;;;16.60;99.90;;;;;;5020200;28;20203;-65
2023/09/30 00:36:39;;;;;;;4.13;1.90;;;16.50;99.90;;;;;;5022522;28;20262;-65
2023/09/30 00:39:04;;;;;;;6.63;2.00;;;16.40;99.90;;;;;;5026413;28;20287;-66
2023/09/30 00:41:30;;;;;;;5.80;2.20;;;16.30;99.90;;;;;;5021287;28;20206;-62
2023/09/30 00:43:55;;;;;;;8.83;2.33;;;16.30;99.90;;;;;;5018272;28;20203;-62
2023/09/30 00:46:29;;;;;;;10.30;3.17;;;16.20;99.90;;;;;;5011660;28;20234;-64
2023/09/30 00:48:56;;;;;;;8.90;2.33;;;16.20;99.90;;;;;;5017025;28;20586;-64
2023/09/30 00:51:22;;;;;;;6.97;2.40;;;16.00;99.90;;;;;;5016336;28;20207;-63
2023/09/30 00:53:50;;;;;;;8.27;2.37;;;15.90;99.90;;;;;;5018067;28;20615;-74
2023/09/30 00:56:16;;;;;;;6.27;1.83;;;15.90;99.90;;;;;;5006750;28;20208;-64
2023/09/30 00:58:42;;;;;;;9.33;3.07;;;15.80;99.90;;;;;;5015276;28;20746;-70
2023/09/30 01:01:09;;;;;;;8.20;3.07;;;15.80;99.90;;;;;;5019386;28;20204;-70
2023/09/30 01:03:35;;;;;;;5.10;2.17;;;15.70;99.90;;;;;;5009366;28;20210;-71
2023/09/30 01:06:01;;;;;;;8.03;2.43;;;15.60;99.90;;;;;;5017618;28;20203;-71
2023/09/30 01:08:27;;;;;;;7.13;2.43;;;15.60;99.90;;;;;;5018943;28;20253;-64
2023/09/30 01:10:53;;;;;;;8.40;2.30;;;15.60;99.90;;;;;;5014584;28;20203;-66
2023/09/30 01:13:19;;;;;;;6.40;2.10;;;15.50;99.90;;;;;;5015740;28;20295;-66
2023/09/30 01:15:44;;;;;;;7.23;2.40;;;15.50;99.90;;;;;;5012545;28;20205;-67
2023/09/30 01:18:10;;;;;;;8.53;3.30;;;15.50;99.90;;;;;;5018683;28;20187;-71
2023/09/30 01:20:36;;;;;;;9.93;2.50;;;15.50;99.90;;;;;;5011357;28;20295;-62
2023/09/30 01:23:02;;;;;;;4.03;2.50;;;15.50;99.90;;;;;;5015415;28;20195;-60
2023/09/30 01:25:28;;;;;;;7.37;2.77;;;15.40;99.90;;;;;;5009976;28;20202;-65
2023/09/30 01:27:54;;;;;;;8.80;2.33;;;15.40;99.90;;;;;;5017302;28;20214;-65
2023/09/30 01:30:22;;;;;;;7.27;2.50;;;15.30;99.90;;;;;;5009638;28;20204;-66
2023/09/30 01:32:48;;;;;;;10.57;2.60;;;15.20;99.90;;;;;;5011731;28;20338;-64
2023/09/30 01:35:13;;;;;;;10.70;2.70;;;15.20;99.90;;;;;;5016480;28;20614;-66
2023/09/30 01:37:39;;;;;;;6.80;2.47;;;15.20;99.90;;;;;;5020044;28;20215;-65
2023/09/30 01:40:08;;;;;;;6.57;2.47;;;15.20;99.90;;;;;;5018064;28;20684;-63
2023/09/30 01:42:33;;;;;;;11.37;2.87;;;15.10;99.90;;;;;;5021652;28;20231;-64
2023/09/30 01:44:59;;;;;;;7.57;2.73;;;15.00;99.90;;;;;;5017835;28;20595;-64
2023/09/30 01:47:24;;;;;;;8.23;3.00;;;14.90;99.90;;;;;;5018583;28;20310;-64
2023/09/30 01:49:49;;;;;;;7.37;2.37;;;14.80;99.90;;;;;;5014957;28;20215;-64
2023/09/30 01:52:15;;;;;;;11.40;3.63;;;14.80;99.90;;;;;;5016733;28;20211;-65
2023/09/30 01:54:40;;;;;;;10.27;2.87;;;14.80;99.90;;;;;;5016611;28;20212;-66
2023/09/30 01:57:06;;;;;;;8.43;2.97;;;14.80;99.90;;;;;;5018112;28;20265;-65
2023/09/30 01:59:31;;;;;;;7.60;2.90;;;14.80;99.90;;;;;;5018366;28;20219;-63
2023/09/30 02:01:57;;;;;;;11.93;5.37;;;14.70;99.90;;;;;;5015877;28;20203;-70
2023/09/30 02:04:23;;;;;;;10.37;3.17;;;14.70;99.90;;;;;;5022493;28;20204;-62
2023/09/30 02:06:48;;;;;;;8.97;3.40;;;14.60;99.90;;;;;;5018101;28;20194;-68
2023/09/30 02:09:14;;;;;;;6.63;2.80;;;14.70;99.90;;;;;;5010562;28;20271;-72
2023/09/30 02:11:41;;;;;;;8.83;3.60;;;14.70;99.90;;;;;;5012439;28;20222;-74
2023/09/30 02:14:06;;;;;;;13.97;3.20;;;14.70;99.90;;;;;;5017624;28;20188;-74
2023/09/30 02:16:32;;;;;;;9.03;2.67;;;14.80;99.90;;;;;;5019654;28;20229;-72
2023/09/30 02:18:58;;;;;;;11.10;3.53;;;14.70;99.90;;;;;;5019158;28;20633;-72
2023/09/30 02:21:24;;;;;;;5.60;2.67;;;14.60;99.90;;;;;;5013863;28;20200;-67
2023/09/30 02:23:54;;;;;;;4.73;2.70;;;14.50;99.90;;;;;;5014236;28;20207;-68
2023/09/30 02:26:20;;;;;;;8.00;2.97;;;14.60;99.90;;;;;;5020590;28;20206;-68
2023/09/30 02:28:46;;;;;;;7.90;2.97;;;14.60;99.90;;;;;;5016819;28;20576;-68
2023/09/30 02:31:12;;;;;;;9.97;2.93;;;14.80;99.90;;;;;;5011675;28;20200;-67
2023/09/30 02:33:38;;;;;;;9.77;3.50;;;14.80;99.90;;;;;;5013405;28;20200;-67
2023/09/30 02:36:07;;;;;;;12.23;3.43;;;14.50;99.90;;;;;;5012389;28;20211;-67
2023/09/30 02:38:33;;;;;;;6.10;2.97;;;14.50;99.90;;;;;;5011831;28;20200;-66
2023/09/30 02:40:58;;;;;;;8.73;3.10;;;14.50;99.90;;;;;;5016443;28;20231;-66
2023/09/30 02:43:24;;;;;;;7.30;3.00;;;14.50;99.90;;;;;;5011118;28;20740;-65
2023/09/30 02:45:50;;;;;;;10.37;2.97;;;14.40;99.90;;;;;;5007700;28;20207;-67
2023/09/30 02:48:15;;;;;;;9.47;3.23;;;14.30;99.90;;;;;;5008358;28;20257;-67
2023/09/30 02:50:46;;;;;;;10.50;3.27;;;14.30;99.90;;;;;;5015908;28;20682;-66
2023/09/30 02:53:15;;;;;;;10.07;3.50;;;14.30;99.90;;;;;;5010978;28;20211;-67
2023/09/30 02:55:42;;;;;;;5.20;2.73;;;14.30;99.90;;;;;;5014576;28;20282;-67
2023/09/30 02:58:08;;;;;;;12.70;3.47;;;14.30;99.90;;;;;;5014650;28;20203;-68
2023/09/30 03:00:35;;;;;;;9.50;3.87;;;14.30;99.90;;;;;;5012818;28;20222;-67
2023/09/30 03:03:01;;;;;;;9.13;3.37;;;14.30;99.90;;;;;;5016808;28;20572;-66
2023/09/30 03:05:30;;;;;;;7.33;3.40;;;14.20;99.90;;;;;;5016194;28;20203;-67
2023/09/30 03:07:55;;;;;;;7.77;3.50;;;14.20;99.90;;;;;;5012365;28;20210;-67
2023/09/30 03:10:23;;;;;;;10.93;3.73;;;14.20;99.90;;;;;;5010841;28;20195;-72
2023/09/30 03:12:50;;;;;;;7.27;3.10;;;14.10;99.90;;;;;;5011910;28;20716;-70
2023/09/30 03:15:16;;;;;;;9.30;3.27;;;14.10;99.90;;;;;;5011947;28;20199;-70
2023/09/30 03:17:42;;;;;;;12.47;3.47;;;14.00;99.90;;;;;;5008467;28;20227;-71
2023/09/30 03:20:11;;;;;;;10.37;3.50;;;14.00;99.90;;;;;;5007689;28;20730;-71
2023/09/30 03:22:40;;;;;;;6.73;3.10;;;14.10;99.90;;;;;;5010659;28;20254;-70
2023/09/30 03:25:07;;;;;;;13.13;4.67;;;14.20;99.90;;;;;;5012490;28;20203;-71
2023/09/30 03:27:36;;;;;;;8.57;3.13;;;14.10;99.90;;;;;;5017297;28;20207;-68
2023/09/30 03:30:03;;;;;;;6.90;3.80;;;13.90;99.90;;;;;;5015599;28;20226;-67
2023/09/30 03:32:29;;;;;;;6.60;3.20;;;13.90;99.90;;;;;;5020701;28;20194;-67
2023/09/30 03:34:58;;;;;;;8.27;3.77;;;13.90;99.90;;;;;;5016563;28;20218;-67
2023/09/30 03:37:26;;;;;;;7.60;3.30;;;13.90;99.90;;;;;;5012557;28;20634;-65
2023/09/30 03:39:53;;;;;;;18.47;4.10;;;14.00;99.90;;;;;;5018246;28;20425;-65
2023/09/30 03:42:18;;;;;;;10.07;3.83;;;14.20;99.90;;;;;;5016396;28;20195;-66
2023/09/30 03:44:44;;;;;;;7.77;2.93;;;14.40;99.90;;;;;;5011169;28;20210;-64
2023/09/30 03:47:09;;;;;;;9.37;3.63;;;14.40;99.90;;;;;;5012869;28;20301;-70
2023/09/30 03:49:38;;;;;;;8.73;2.87;;;14.40;99.90;;;;;;5009658;28;20203;-65
2023/09/30 03:52:06;;;;;;;9.03;3.63;;;14.40;99.90;;;;;;5014599;28;20199;-66
2023/09/30 03:54:31;;;;;;;12.63;3.83;;;14.30;99.90;;;;;;5007457;28;20904;-66
2023/09/30 03:56:57;;;;;;;13.00;3.20;;;14.20;99.90;;;;;;5019368;28;20219;-66
2023/09/30 03:59:23;;;;;;;11.37;3.77;;;14.10;99.90;;;;;;5016676;28;20196;-66
2023/09/30 04:01:48;;;;;;;11.60;3.87;;;14.10;99.90;;;;;;5006851;28;20212;-65
2023/09/30 04:04:14;;;;;;;6.30;3.37;;;14.10;99.90;;;;;;5017206;28;20631;-67
2023/09/30 04:06:39;;;;;;;9.43;4.17;;;14.00;99.90;;;;;;5021322;28;20210;-66
2023/09/30 04:09:09;;;;;;;8.03;2.63;;;13.80;99.90;;;;;;5015481;28;20564;-66
2023/09/30 04:11:36;;;;;;;11.03;3.30;;;13.70;99.90;;;;;;5012792;28;20204;-65
2023/09/30 04:14:03;;;;;;;9.30;4.07;;;13.80;99.90;;;;;;5021184;28;20202;-66
2023/09/30 04:16:30;;;;;;;10.13;3.93;;;13.80;99.90;;;;;;5016788;28;20226;-65
2023/09/30 04:18:55;;;;;;;10.83;4.13;;;13.70;99.90;;;;;;5017358;28;20538;-66
2023/09/30 04:21:21;;;;;;;7.30;3.60;;;13.70;99.90;;;;;;5012244;28;20211;-64
2023/09/30 04:23:46;;;;;;;9.50;3.37;;;13.70;99.90;;;;;;5018996;28;20933;-64
2023/09/30 04:26:12;;;;;;;10.30;3.73;;;13.60;99.90;;;;;;5007184;28;20207;-64
2023/09/30 04:28:38;;;;;;;10.90;3.93;;;13.70;99.90;;;;;;5007930;28;20782;-64
2023/09/30 04:31:04;;;;;;;8.03;3.53;;;13.70;99.90;;;;;;5018103;28;20195;-65
2023/09/30 04:33:30;;;;;;;12.60;4.40;;;13.70;99.90;;;;;;5012606;28;20188;-65
2023/09/30 04:35:55;;;;;;;12.33;4.37;;;13.70;99.90;;;;;;5016388;28;20211;-68
2023/09/30 04:38:21;;;;;;;9.23;3.50;;;13.70;99.90;;;;;;5016772;28;20203;-66
2023/09/30 04:40:48;;;;;;;9.73;3.80;;;13.80;99.90;;;;;;5016405;28;20207;-66
2023/09/30 04:43:14;;;;;;;9.20;3.67;;;13.80;99.90;;;;;;5020010;28;20199;-66
2023/09/30 04:45:40;;;;;;;7.00;3.80;;;13.90;99.90;;;;;;5009732;28;20211;-67
2023/09/30 04:48:05;;;;;;;11.73;4.57;;;13.80;99.90;;;;;;5012210;28;20205;-66
2023/09/30 04:50:31;;;;;;;10.37;3.97;;;13.80;99.90;;;;;;5013838;28;20199;-67
2023/09/30 04:52:57;;;;;;;8.40;3.50;;;13.80;99.90;;;;;;5012378;28;20231;-68
2023/09/30 04:55:23;;;;;;;7.50;2.97;;;13.80;99.90;;;;;;5013140;28;20955;-67
2023/09/30 04:57:50;;;;;;;10.30;3.70;;;13.80;99.90;;;;;;5018151;28;20272;-67
2023/09/30 05:00:17;;;;;;;7.47;3.30;;;13.80;99.90;;;;;;5018919;28;20199;-66
2023/09/30 05:02:44;;;;;;;9.33;4.07;;;13.70;99.90;;;;;;5020316;28;20849;-66
2023/09/30 05:05:10;;;;;;;15.27;3.53;;;13.60;99.90;;;;;;5009620;28;20740;-66
2023/09/30 05:07:36;;;;;;;6.27;2.80;;;13.50;99.90;;;;;;5014046;28;20195;-67
2023/09/30 05:10:05;;;;;;;12.53;3.57;;;13.50;99.90;;;;;;5012038;28;20270;-66
2023/09/30 05:12:32;;;;;;;11.03;4.13;;;13.40;99.90;;;;;;5019868;28;20260;-67
2023/09/30 05:14:58;;;;;;;16.03;3.83;;;13.50;99.90;;;;;;5016936;28;20195;-65
2023/09/30 05:17:24;;;;;;;11.07;3.63;;;13.40;99.90;;;;;;5016852;28;20268;-65
2023/09/30 05:19:49;;;;;;;10.17;3.73;;;13.30;99.90;;;;;;5023026;28;20211;-65
2023/09/30 05:22:15;;;;;;;8.50;3.80;;;13.30;99.90;;;;;;5016490;28;20195;-65
2023/09/30 05:24:40;;;;;;;13.43;3.73;;;13.30;99.90;;;;;;5017711;28;20245;-65
2023/09/30 05:27:06;;;;;;;10.33;4.17;;;13.20;99.90;;;;;;5014746;28;20229;-65
2023/09/30 05:29:33;;;;;;;11.73;4.20;;;13.30;99.90;;;;;;5015811;28;20749;-66
2023/09/30 05:31:58;;;;;;;14.13;4.17;;;13.30;99.90;;;;;;5015556;28;20203;-66
2023/09/30 05:34:24;;;;;;;11.30;4.17;;;13.30;99.90;;;;;;5014402;28;20195;-66
2023/09/30 05:36:50;;;;;;;6.80;3.93;;;13.30;99.90;;;;;;5021689;28;20616;-67
2023/09/30 05:39:19;;;;;;;13.60;4.50;;;13.30;99.90;;;;;;5017370;28;20248;-67
2023/09/30 05:41:46;;;;;;;8.83;3.50;;;13.40;99.90;;;;;;5019306;28;20595;-66
2023/09/30 05:44:14;;;;;;;8.50;3.77;;;13.40;99.90;;;;;;5017301;28;20302;-66
2023/09/30 05:46:39;;;;;;;8.37;3.33;;;13.30;99.90;;;;;;5023091;28;20745;-67
2023/09/30 05:49:09;;;;;;;7.50;3.50;;;13.40;99.90;;;;;;5015288;28;20210;-64
2023/09/30 05:51:35;;;;;;;11.07;4.27;;;13.30;99.90;;;;;;5017979;28;20215;-63
2023/09/30 05:54:00;;;;;;;9.13;3.40;;;13.30;99.90;;;;;;5021281;28;20242;-64
2023/09/30 05:56:27;;;;;;;7.03;3.37;;;13.40;99.90;;;;;;5021561;28;20214;-71
2023/09/30 05:58:52;;;;;;;8.97;4.20;;;13.30;99.90;;;;;;5023415;28;20233;-66
2023/09/30 06:01:18;;;;;;;7.43;3.73;;;13.20;99.90;;;;;;5021599;28;20254;-68
2023/09/30 06:03:46;;;;;;;7.23;3.57;;;13.20;99.90;;;;;;5014128;28;20210;-67
2023/09/30 06:06:15;;;;;;;9.50;3.37;;;13.40;99.90;;;;;;5020916;28;20734;-62
2023/09/30 06:08:45;;;;;;;9.67;3.60;;;13.50;99.90;;;;;;5012713;28;20208;-63
2023/09/30 06:11:17;;;;;;;12.77;3.17;;;13.60;99.90;;;;;;5016403;28;20226;-75
2023/09/30 06:13:43;;;;;;;9.57;3.53;;;13.50;99.90;;;;;;5017972;28;20200;-75
2023/09/30 06:16:11;;;;;;;10.37;3.47;;;13.50;99.90;;;;;;5012461;28;20221;-75
2023/09/30 06:18:36;;;;;;;10.93;3.90;;;13.60;99.90;;;;;;5023342;28;20607;-59
2023/09/30 06:21:03;;;;;;;7.47;3.50;;;13.50;99.90;;;;;;5014619;28;20199;-62
2023/09/30 06:23:29;;;;;;;14.73;3.83;;;13.60;99.90;;;;;;5012862;28;20199;-63
2023/09/30 06:25:55;;;;;;;10.93;4.17;;;13.70;99.90;;;;;;5019042;28;20234;-66
2023/09/30 06:28:25;;;;;;;8.77;3.63;;;13.60;99.90;;;;;;5020409;28;20207;-63
2023/09/30 06:30:51;;;;;;;8.70;4.13;;;13.60;99.90;;;;;;5011088;28;20207;-65
2023/09/30 06:33:17;;;;;;;10.50;4.33;;;13.60;99.90;;;;;;5022624;28;20210;-70
2023/09/30 06:35:50;;;;;;;11.90;4.27;;;13.70;99.90;;;;;;5017201;28;20199;-69
2023/09/30 06:38:17;;;;;;;13.47;4.17;;;13.70;99.90;;;;;;5013025;28;20195;-69
2023/09/30 06:40:43;;;;;;;6.50;3.83;;;13.70;99.90;;;;;;5010543;28;20852;-66
2023/09/30 06:43:08;;;;;;;10.57;3.70;;;13.80;99.90;;;;;;5013862;28;20288;-67
2023/09/30 06:45:34;;;;;;;12.47;4.00;;;13.70;99.90;;;;;;5029243;28;20265;-66
2023/09/30 06:47:59;;;;;;;12.47;3.33;;;13.80;99.90;;;;;;5022338;28;20203;-66
2023/09/30 06:50:25;;;;;;;11.07;3.70;;;13.90;99.90;;;;;;5039356;28;20250;-66
2023/09/30 06:52:50;;;;;;;13.23;4.00;;;14.00;99.90;;;;;;5024054;28;20203;-62
2023/09/30 06:55:16;;;;;;;11.77;4.00;;;14.00;99.90;;;;;;5036822;28;20183;-62
2023/09/30 06:57:42;;;;;;;11.93;4.20;;;14.00;99.90;;;;;;5026251;28;20301;-63
2023/09/30 07:00:09;;;;;;;13.60;4.27;;;14.10;99.90;;;;;;5024617;28;20270;-63
2023/09/30 07:02:36;;;;;;;8.50;2.87;;;14.10;99.90;;;;;;5036889;28;20195;-69
2023/09/30 07:05:05;;;;;;;11.03;4.23;;;14.00;99.90;;;;;;5038449;28;20600;-68
2023/09/30 07:07:30;;;;;;;9.70;4.87;;;14.00;99.90;;;;;;5024011;28;20199;-68
2023/09/30 07:09:56;;;;;;;16.40;4.63;;;14.10;99.90;;;;;;5032305;28;20194;-68
2023/09/30 07:12:22;;;;;;;17.33;4.40;;;14.30;99.90;;;;;;5023942;28;20191;-67
2023/09/30 07:14:47;;;;;;;8.43;3.20;;;14.30;99.90;;;;;;5029878;28;20218;-68
2023/09/30 07:17:14;;;;;;;11.93;3.37;;;14.30;99.90;;;;;;5022829;28;20226;-68
2023/09/30 07:19:39;;;;;;;10.47;3.87;;;14.40;99.90;;;;;;5005471;28;20222;-68
2023/09/30 07:22:05;;;;;;;10.93;3.80;;;14.30;99.90;;;;;;5035477;28;20579;-68
2023/09/30 07:24:31;;;;;;;11.40;3.97;;;14.30;99.90;;;;;;5005972;28;20212;-67
2023/09/30 07:26:56;;;;;;;6.47;3.20;;;14.30;99.90;;;;;;5036273;28;20202;-67
2023/09/30 07:29:23;;;;;;;11.20;4.07;;;14.30;99.90;;;;;;5033894;28;20620;-67
2023/09/30 07:31:49;;;;;;;17.13;4.03;;;14.40;99.90;;;;;;5039821;28;20191;-67
2023/09/30 07:34:14;;;;;;;14.97;3.37;;;14.50;99.90;;;;;;5022443;28;20601;-67
2023/09/30 07:36:40;;;;;;;8.73;4.03;;;14.40;99.90;;;;;;5026814;28;20198;-68
2023/09/30 07:39:05;;;;;;;8.00;4.03;;;14.40;99.90;;;;;;5024026;28;20294;-68
2023/09/30 07:41:36;;;;;;;15.47;4.60;;;14.40;99.90;;;;;;5032472;28;20198;-68
2023/09/30 07:44:02;;;;;;;9.97;3.90;;;14.50;99.90;;;;;;5024296;28;20735;-67
2023/09/30 07:46:28;;;;;;;8.47;4.43;;;14.50;99.90;;;;;;5026655;28;20191;-68
2023/09/30 07:48:55;;;;;;;8.33;3.47;;;14.60;99.90;;;;;;5043484;28;20167;-68
2023/09/30 07:51:20;;;;;;;9.57;3.57;;;14.60;99.90;;;;;;5033077;28;20195;-68
2023/09/30 07:53:46;;;;;;;9.93;3.07;;;14.70;99.90;;;;;;5023063;28;20187;-68
2023/09/30 07:56:11;;;;;;;8.43;3.43;;;14.60;99.90;;;;;;5020347;28;20207;-67
2023/09/30 07:58:37;;;;;;;8.80;3.63;;;14.70;99.90;;;;;;5003659;28;20176;-68
2023/09/30 08:01:02;;;;;;;8.67;3.20;;;14.80;99.90;;;;;;5022313;28;20196;-69
2023/09/30 08:03:28;;;;;;;17.80;4.03;;;14.90;99.90;;;;;;5037108;28;20342;-68
2023/09/30 08:05:53;;;;;;;10.00;4.03;;;14.90;99.90;;;;;;5030145;28;20199;-69
2023/09/30 08:08:19;;;;;;;11.30;3.70;;;15.00;99.90;;;;;;5028299;28;20211;-69
2023/09/30 08:10:44;;;;;;;10.53;3.20;;;14.90;99.90;;;;;;5023285;28;20195;-70
2023/09/30 08:13:09;;;;;;;10.03;3.40;;;15.00;99.90;;;;;;5033104;28;20320;-70
2023/09/30 08:15:35;;;;;;;10.40;3.73;;;15.00;99.90;;;;;;5042194;28;20238;-70
2023/09/30 08:18:02;;;;;;;8.63;3.17;;;15.00;99.90;;;;;;5022117;28;20736;-69
2023/09/30 08:20:28;;;;;;;11.30;3.03;;;15.10;99.90;;;;;;5028643;28;20305;-69
2023/09/30 08:22:53;;;;;;;13.00;3.30;;;15.10;99.90;;;;;;5023643;28;20276;-71
2023/09/30 08:25:19;;;;;;;7.40;3.10;;;15.20;99.90;;;;;;5033711;28;20249;-70
2023/09/30 08:27:49;;;;;;;11.80;4.20;;;15.40;99.90;;;;;;5022353;28;20976;-70
2023/09/30 08:30:15;;;;;;;11.03;3.17;;;15.40;99.90;;;;;;5016078;28;20277;-70
2023/09/30 08:32:40;;;;;;;10.13;3.67;;;15.50;99.90;;;;;;5024527;22;20254;-66
2023/09/30 08:35:07;;;;;;;8.40;3.13;;;15.50;99.90;;;;;;5026740;28;20212;-67
2023/09/30 08:37:32;;;;;;;11.53;3.60;;;15.60;99.90;;;;;;5022900;28;20899;-68
2023/09/30 08:39:58;;;;;;;10.10;3.33;;;15.70;99.90;;;;;;5022142;28;20269;-63
2023/09/30 08:42:26;;;;;;;6.70;3.17;;;15.70;99.90;;;;;;5038948;28;20225;-71
2023/09/30 08:44:56;;;;;;;8.33;3.03;;;15.70;99.90;;;;;;5019713;28;20200;-72
2023/09/30 08:47:24;;;;;;;8.07;3.00;;;15.60;99.90;;;;;;5033180;28;20203;-73
2023/09/30 08:49:56;;;;;;;14.27;3.97;;;15.60;99.90;;;;;;5031183;28;20202;-73
2023/09/30 08:52:22;;;;;;;12.00;3.43;;;15.60;99.90;;;;;;5029934;28;20312;-71
2023/09/30 08:54:48;;;;;;;10.67;3.73;;;15.50;99.90;;;;;;5042054;28;20922;-72
2023/09/30 08:57:14;;;;;;;15.87;3.80;;;15.50;99.90;;;;;;5031099;28;20222;-71
2023/09/30 08:59:42;;;;;;;4.73;2.43;;;15.60;99.90;;;;;;5032994;28;20295;-72
2023/09/30 09:02:11;;;;;;;10.30;3.40;;;15.70;99.90;;;;;;5036710;28;20205;-72
2023/09/30 09:04:39;;;;;;;9.20;2.80;;;15.80;99.90;;;;;;5041691;28;20190;-72
2023/09/30 09:07:05;;;;;;;13.27;3.63;;;15.90;99.90;;;;;;5031143;28;20214;-72
2023/09/30 09:09:32;;;;;;;8.13;3.17;;;16.00;99.90;;;;;;5041705;28;20179;-72
2023/09/30 09:11:58;;;;;;;13.00;3.70;;;16.10;99.90;;;;;;5028443;28;20194;-72
2023/09/30 09:14:41;;;;;;;17.43;2.83;;;16.00;99.90;;;;;;5040256;28;20197;-71
2023/09/30 09:17:08;;;;;;;8.17;2.97;;;16.10;99.90;;;;;;5041729;28;20207;-72
2023/09/30 09:19:34;;;;;;;9.60;3.07;;;16.20;99.90;;;;;;5041646;28;20258;-71
2023/09/30 09:22:01;;;;;;;6.87;3.37;;;16.20;99.90;;;;;;5038291;28;20198;-62
2023/09/30 09:24:34;;;;;;;12.27;2.77;;;16.20;99.90;;;;;;5040603;28;20221;-61
2023/09/30 09:27:11;;;;;;;7.63;2.83;;;16.20;99.90;;;;;;5041032;28;20195;-61
2023/09/30 09:29:38;;;;;;;7.67;2.47;;;16.40;99.90;;;;;;5040865;28;20288;-71
2023/09/30 09:32:22;;;;;;;10.87;3.77;;;16.40;99.90;;;;;;5040325;28;20226;-73
2023/09/30 09:35:01;;;;;;;9.67;3.50;;;16.50;99.90;;;;;;5032213;28;20190;-72
2023/09/30 09:37:26;;;;;;;7.77;2.80;;;16.60;99.90;;;;;;5035139;28;20218;-70
2023/09/30 09:39:57;;;;;;;7.87;3.33;;;16.70;99.90;;;;;;5029624;28;20201;-71
2023/09/30 09:42:32;;;;;;;8.00;3.10;;;16.80;99.90;;;;;;5033734;28;20578;-70
2023/09/30 09:45:00;;;;;;;8.07;2.67;;;16.90;99.90;;;;;;5031492;28;20211;-70
2023/09/30 09:47:27;;;;;;;11.57;2.90;;;16.90;99.90;;;;;;5030083;28;20195;-69
2023/09/30 09:49:53;;;;;;;6.23;2.57;;;16.90;99.90;;;;;;5035190;28;20275;-69
2023/09/30 09:52:19;;;;;;;6.17;2.20;;;17.00;99.90;;;;;;5034452;28;20214;-68
2023/09/30 09:54:46;;;;;;;12.47;2.53;;;17.10;99.90;;;;;;5039952;28;20190;-65
2023/09/30 09:57:12;;;;;;;8.83;2.57;;;17.20;99.90;;;;;;5030052;28;20242;-63
2023/09/30 09:59:39;;;;;;;5.17;2.03;;;17.30;99.90;;;;;;5034682;28;20235;-63
2023/09/30 10:02:10;;;;;;;8.17;3.00;;;17.30;99.90;;;;;;5041274;28;20271;-63
2023/09/30 10:04:37;;;;;;;8.40;2.97;;;17.30;99.90;;;;;;5040913;28;20187;-63
2023/09/30 10:07:05;;;;;;;7.60;2.77;;;17.30;99.90;;;;;;5044196;28;20214;-64
2023/09/30 10:09:34;;;;;;;7.57;2.97;;;17.20;99.90;;;;;;5045074;28;20270;-63
2023/09/30 10:12:01;;;;;;;9.77;3.40;;;17.20;99.90;;;;;;5030157;28;20208;-63
2023/09/30 10:14:33;;;;;;;7.20;2.67;;;17.30;99.90;;;;;;5030033;28;20432;-63
2023/09/30 10:16:59;;;;;;;6.97;2.47;;;17.30;99.90;;;;;;5043717;28;20353;-63
2023/09/30 10:19:26;;;;;;;6.57;2.30;;;17.50;99.90;;;;;;5039974;28;20285;-64
2023/09/30 10:22:21;;;;;;;7.70;2.53;;;17.50;99.90;;;;;;5028843;28;20207;-64
2023/09/30 10:24:49;;;;;;;7.67;2.20;;;17.50;99.90;;;;;;5028983;28;20188;-64
2023/09/30 10:27:33;;;;;;;5.00;1.80;;;17.70;99.90;;;;;;5032632;28;20536;-63
2023/09/30 10:30:01;;;;;;;8.40;2.30;;;17.90;99.90;;;;;;5039513;28;20271;-64
2023/09/30 10:33:07;;;;;;;7.40;2.67;;;18.00;99.90;;;;;;5042185;28;20268;-63
2023/09/30 10:35:32;;;;;;;5.50;1.97;;;18.30;99.90;;;;;;5026856;28;20196;-62
2023/09/30 10:38:33;;;;;;;7.37;2.60;;;18.30;99.90;;;;;;5038659;28;20629;-61
2023/09/30 10:41:02;;;;;;;10.43;2.10;;;18.10;99.90;;;;;;5030386;28;20687;-62
2023/09/30 10:43:41;;;;;;;8.20;2.20;;;18.10;99.90;;;;;;5042117;28;20640;-62
2023/09/30 10:46:33;;;;;;;6.03;2.27;;;18.20;99.90;;;;;;5030067;28;20201;-66
2023/09/30 10:49:17;;;;;;;5.60;2.23;;;18.10;99.90;;;;;;5035259;28;20180;-66
2023/09/30 10:51:43;;;;;;;5.57;1.87;;;18.20;99.90;;;;;;5033475;28;20220;-66
2023/09/30 10:54:12;;;;;;;6.13;2.17;;;18.20;99.90;;;;;;5032086;28;20202;-65
2023/09/30 10:56:37;;;;;;;5.23;1.90;;;18.30;99.90;;;;;;5033946;28;20228;-65
2023/09/30 10:59:03;;;;;;;6.40;2.83;;;18.40;99.90;;;;;;5033697;28;20664;-65
2023/09/30 11:01:36;;;;;;;8.37;2.57;;;18.40;99.90;;;;;;5035767;28;20204;-65
2023/09/30 11:04:04;;;;;;;7.67;3.40;;;18.40;99.90;;;;;;5030256;28;20359;-65
2023/09/30 11:06:31;;;;;;;8.73;2.57;;;18.50;99.90;;;;;;5035395;28;20205;-66
2023/09/30 11:08:59;;;;;;;5.27;2.33;;;18.60;99.90;;;;;;5029964;28;20200;-66
2023/09/30 11:11:52;;;;;;;11.17;2.70;;;18.80;99.90;;;;;;5033628;28;20395;-66
2023/09/30 11:14:22;;;;;;;4.17;2.10;;;18.70;99.90;;;;;;5031626;28;20204;-76
2023/09/30 11:16:50;;;;;;;6.97;2.57;;;18.60;99.90;;;;;;5033188;28;20219;-69
2023/09/30 11:19:16;;;;;;;6.97;1.93;;;18.80;99.90;;;;;;5033079;28;20202;-66
2023/09/30 11:21:43;;;;;;;4.23;2.00;;;19.10;99.90;;;;;;5033118;28;20206;-66
2023/09/30 11:24:09;;;;;;;5.23;1.97;;;19.30;99.90;;;;;;5031764;28;20206;-65
2023/09/30 11:26:35;;;;;;;10.30;2.50;;;19.40;99.90;;;;;;5034694;28;20195;-67
2023/09/30 11:29:18;;;;;;;9.17;2.43;;;19.40;99.90;;;;;;5033474;28;20277;-66
2023/09/30 11:31:48;;;;;;;7.20;2.67;;;19.90;99.90;;;;;;5029853;28;20222;-67
2023/09/30 11:34:18;;;;;;;5.53;1.80;;;19.80;99.90;;;;;;5030197;28;20668;-66
2023/09/30 11:36:52;;;;;;;6.90;2.70;;;19.70;99.90;;;;;;5031011;28;20221;-64
2023/09/30 11:39:30;;;;;;;7.23;2.20;;;19.70;99.90;;;;;;5031285;28;20253;-66
2023/09/30 11:41:57;;;;;;;7.23;1.67;;;19.80;99.90;;;;;;5031570;28;20705;-65
2023/09/30 11:44:24;;;;;;;3.47;1.73;;;19.90;99.90;;;;;;5031743;28;20202;-64
2023/09/30 11:46:57;;;;;;;4.57;1.83;;;20.10;99.90;;;;;;5032546;28;20309;-67
2023/09/30 11:49:30;;;;;;;3.83;1.93;;;20.00;99.90;;;;;;5031281;28;20202;-67
2023/09/30 11:51:58;;;;;;;5.30;1.87;;;20.40;99.40;;;;;;5028712;28;20555;-66
2023/09/30 11:54:29;;;;;;;11.00;2.53;;;20.80;99.10;;;;;;5032666;28;20187;-60
2023/09/30 11:56:54;;;;;;;6.03;2.17;;;20.80;98.70;;;;;;5031143;28;20225;-69
2023/09/30 11:59:22;;;;;;;4.70;1.83;;;20.70;99.00;;;;;;5023025;28;20822;-69
2023/09/30 12:01:48;;;;;;;6.43;1.90;;;20.40;98.60;;;;;;5032740;28;20203;-65
2023/09/30 12:04:17;;;;;;;7.73;2.00;;;20.40;98.00;;;;;;5034207;28;20191;-66
2023/09/30 12:06:42;;;;;;;5.33;1.90;;;20.60;98.80;;;;;;5029218;28;20194;-66
2023/09/30 12:09:13;;;;;;;3.37;1.90;;;20.80;98.70;;;;;;5025551;28;20206;-70
2023/09/30 12:11:39;;;;;;;8.00;1.50;;;21.00;97.60;;;;;;5031091;28;20199;-67
2023/09/30 12:14:04;;;;;;;8.87;1.60;;;20.70;96.70;;;;;;5029321;28;20585;-65
2023/09/30 12:16:30;;;;;;;5.10;1.50;;;20.60;97.30;;;;;;5028261;28;20672;-64
2023/09/30 12:18:56;;;;;;;6.20;1.90;;;20.50;97.00;;;;;;5029753;28;20317;-64
2023/09/30 12:21:22;;;;;;;7.57;1.93;;;20.60;97.10;;;;;;5028512;28;20251;-64
2023/09/30 12:23:48;;;;;;;8.67;1.90;;;20.60;97.00;;;;;;5029165;28;20208;-64
2023/09/30 12:26:14;;;;;;;6.60;1.20;;;20.30;96.10;;;;;;5029991;28;20191;-64
2023/09/30 12:28:40;;;;;;;5.77;2.10;;;20.40;96.60;;;;;;5028430;28;20228;-64
2023/09/30 12:31:06;;;;;;;4.37;1.77;;;20.40;95.80;;;;;;5025586;28;20252;-64
2023/09/30 12:33:34;;;;;;;5.10;1.63;;;20.20;96.10;;;;;;5026147;28;20238;-64
2023/09/30 12:36:00;;;;;;;5.63;1.83;;;20.00;96.30;;;;;;5031481;28;20659;-64
2023/09/30 12:38:27;;;;;;;4.17;1.83;;;19.90;96.10;;;;;;5028764;28;20216;-64
2023/09/30 12:40:56;;;;;;;3.43;1.37;;;19.90;95.90;;;;;;5030076;28;20349;-64
2023/09/30 12:43:22;;;;;;;6.60;2.07;;;20.10;96.60;;;;;;5026590;28;20289;-63